Time;durP1;ratioP1;P1;durP2;ratioP2;P2;SDS_P1;SDS_P2;PMS_P1;PMS_P2;Temp;Humidity;BMP_temperature;BMP_pressure;BME280_temperature;BME280_humidity;BME280_pressure;Samples;Min_cycle;Max_cycle;Signal;HPM_P1;HPM_P2
2022/12/09 00:00:02;;;;;;;33.17;19.93;;;2.10;99.90;;;;;;5093363;28;20231;-78
2022/12/09 00:02:30;;;;;;;33.80;21.20;;;2.10;99.90;;;;;;5092600;28;20383;-78
2022/12/09 00:04:57;;;;;;;38.10;21.07;;;2.20;99.90;;;;;;5092838;28;20287;-78
2022/12/09 00:07:24;;;;;;;35.80;21.60;;;2.10;99.90;;;;;;5092972;28;20307;-79
2022/12/09 00:09:51;;;;;;;33.20;19.77;;;2.10;99.90;;;;;;5092031;28;20820;-78
2022/12/09 00:12:18;;;;;;;34.03;20.90;;;2.10;99.90;;;;;;5092996;28;20208;-78
2022/12/09 00:14:45;;;;;;;31.97;18.87;;;2.10;99.90;;;;;;5092224;28;20346;-78
2022/12/09 00:17:11;;;;;;;33.53;19.63;;;2.10;99.90;;;;;;5092797;28;20526;-77
2022/12/09 00:19:40;;;;;;;25.73;17.30;;;2.10;99.90;;;;;;5092284;28;20311;-78
2022/12/09 00:22:07;;;;;;;28.03;19.10;;;2.10;99.90;;;;;;5092934;28;20288;-78
2022/12/09 00:24:33;;;;;;;32.37;19.53;;;2.00;99.90;;;;;;5095207;28;20197;-78
2022/12/09 00:27:01;;;;;;;29.73;17.93;;;2.00;99.90;;;;;;5094472;28;20642;-78
2022/12/09 00:29:27;;;;;;;32.07;20.20;;;2.00;99.90;;;;;;5092509;28;20205;-79
2022/12/09 00:31:54;;;;;;;33.30;20.53;;;2.00;99.90;;;;;;5093194;28;20197;-78
2022/12/09 00:34:21;;;;;;;27.10;19.50;;;2.00;99.90;;;;;;5093343;28;20196;-78
2022/12/09 00:36:50;;;;;;;28.13;18.03;;;1.90;99.90;;;;;;5092524;28;20211;-78
2022/12/09 00:39:17;;;;;;;28.83;18.93;;;1.90;99.90;;;;;;5092205;28;20204;-78
2022/12/09 00:41:44;;;;;;;30.93;19.73;;;1.90;99.90;;;;;;5092916;28;20279;-78
2022/12/09 00:44:11;;;;;;;34.13;20.80;;;1.80;99.90;;;;;;5091455;28;20219;-78
2022/12/09 00:46:38;;;;;;;28.17;18.53;;;1.80;99.90;;;;;;5092424;28;20492;-78
2022/12/09 00:49:05;;;;;;;30.33;18.50;;;1.80;99.90;;;;;;5092517;28;20575;-79
2022/12/09 00:51:32;;;;;;;25.67;18.00;;;1.80;99.90;;;;;;5091791;28;20200;-78
2022/12/09 00:54:00;;;;;;;28.57;18.13;;;1.70;99.90;;;;;;5104653;28;20295;-78
2022/12/09 00:56:29;;;;;;;25.27;16.67;;;1.70;99.90;;;;;;5112631;28;20199;-79
2022/12/09 00:58:57;;;;;;;21.07;15.33;;;1.70;99.90;;;;;;5095626;28;20200;-78
2022/12/09 01:01:24;;;;;;;23.77;15.87;;;1.60;99.90;;;;;;5092357;28;20224;-78
2022/12/09 01:03:51;;;;;;;23.07;15.37;;;1.60;99.90;;;;;;5090881;28;20197;-78
2022/12/09 01:06:20;;;;;;;20.43;14.57;;;1.50;99.90;;;;;;5092467;28;20554;-78
2022/12/09 01:08:47;;;;;;;21.70;15.23;;;1.50;99.90;;;;;;5092294;28;20230;-78
2022/12/09 01:11:18;;;;;;;20.57;14.63;;;1.50;99.90;;;;;;5091934;28;20291;-78
2022/12/09 01:13:45;;;;;;;21.10;14.10;;;1.40;99.90;;;;;;5092040;28;20236;-77
2022/12/09 01:16:17;;;;;;;21.57;14.97;;;1.40;99.90;;;;;;5092417;28;20226;-79
2022/12/09 01:18:44;;;;;;;21.80;14.93;;;1.30;99.90;;;;;;5091122;28;20283;-78
2022/12/09 01:21:11;;;;;;;23.60;15.60;;;1.30;99.90;;;;;;5092000;28;20199;-79
2022/12/09 01:23:38;;;;;;;21.50;14.67;;;1.20;99.90;;;;;;5092363;28;20214;-78
2022/12/09 01:26:06;;;;;;;21.90;14.20;;;1.20;99.90;;;;;;5091707;28;20220;-79
2022/12/09 01:28:37;;;;;;;19.67;14.37;;;1.20;99.90;;;;;;5091549;28;20627;-79
2022/12/09 01:31:08;;;;;;;25.70;17.60;;;1.20;99.90;;;;;;5092267;28;20523;-79
2022/12/09 01:33:34;;;;;;;21.53;14.30;;;1.10;99.90;;;;;;5090972;28;20192;-79
2022/12/09 01:36:05;;;;;;;22.87;15.03;;;1.00;99.90;;;;;;5091904;28;20203;-78
2022/12/09 01:38:32;;;;;;;22.57;14.83;;;1.00;99.90;;;;;;5091962;28;20199;-79
2022/12/09 01:40:59;;;;;;;22.50;15.10;;;1.00;99.90;;;;;;5090953;28;20493;-79
2022/12/09 01:43:26;;;;;;;19.47;14.07;;;0.90;99.90;;;;;;5091328;28;20232;-79
2022/12/09 01:45:55;;;;;;;22.27;14.37;;;0.90;99.90;;;;;;5091922;28;20193;-78
2022/12/09 01:48:25;;;;;;;23.70;15.77;;;0.90;99.90;;;;;;5091064;28;20216;-78
2022/12/09 01:50:55;;;;;;;23.40;14.23;;;0.90;99.90;;;;;;5091311;28;20273;-80
2022/12/09 01:53:24;;;;;;;23.73;15.43;;;0.90;99.90;;;;;;5091332;28;20240;-79
2022/12/09 01:55:51;;;;;;;22.57;15.60;;;0.90;99.90;;;;;;5091527;28;20228;-79
2022/12/09 01:58:19;;;;;;;23.77;15.27;;;0.80;99.90;;;;;;5094421;28;20239;-79
2022/12/09 02:00:47;;;;;;;25.33;16.50;;;0.80;99.90;;;;;;5095252;28;20193;-78
2022/12/09 02:03:15;;;;;;;23.30;16.03;;;0.80;99.90;;;;;;5095347;28;20201;-80
2022/12/09 02:05:43;;;;;;;27.17;18.00;;;0.80;99.90;;;;;;5095146;28;20318;-79
2022/12/09 02:08:12;;;;;;;30.93;19.43;;;0.70;99.90;;;;;;5108640;28;20605;-79
2022/12/09 02:10:47;;;;;;;31.37;19.77;;;0.70;99.90;;;;;;5098219;28;20291;-79
2022/12/09 02:13:22;;;;;;;33.60;20.20;;;0.70;99.90;;;;;;5094970;28;20239;-78
2022/12/09 02:15:54;;;;;;;34.57;19.93;;;0.70;99.90;;;;;;5094431;28;20926;-79
2022/12/09 02:18:27;;;;;;;32.67;19.97;;;0.70;99.90;;;;;;5095389;28;20291;-79
2022/12/09 02:20:59;;;;;;;30.63;19.60;;;0.70;99.90;;;;;;5095481;28;20279;-78
2022/12/09 02:23:34;;;;;;;29.57;19.37;;;0.70;99.90;;;;;;5094878;28;20193;-79
2022/12/09 02:26:10;;;;;;;30.87;20.00;;;0.70;99.90;;;;;;5095046;28;20196;-79
2022/12/09 02:28:56;;;;;;;28.83;19.20;;;0.60;99.90;;;;;;5094367;28;20216;-78
2022/12/09 02:31:39;;;;;;;26.77;17.77;;;0.60;99.90;;;;;;5095293;28;20640;-79
2022/12/09 02:34:13;;;;;;;27.03;18.17;;;0.60;99.90;;;;;;5095355;28;20279;-79
2022/12/09 02:36:52;;;;;;;28.80;19.27;;;0.60;99.90;;;;;;5094205;28;20232;-78
2022/12/09 02:39:24;;;;;;;29.20;19.07;;;0.60;99.90;;;;;;5094989;28;20185;-78
2022/12/09 02:41:54;;;;;;;29.87;18.80;;;0.50;99.90;;;;;;5094618;28;20193;-77
2022/12/09 02:44:23;;;;;;;27.30;18.67;;;0.50;99.90;;;;;;5094103;28;20280;-78
2022/12/09 02:46:50;;;;;;;29.13;18.50;;;0.50;99.90;;;;;;5094277;28;20227;-77
2022/12/09 02:49:21;;;;;;;31.73;20.30;;;0.50;99.90;;;;;;5094168;28;20226;-78
2022/12/09 02:51:50;;;;;;;31.20;19.77;;;0.50;99.90;;;;;;5094501;28;20308;-78
2022/12/09 02:54:19;;;;;;;27.90;18.67;;;0.40;99.90;;;;;;5094079;28;20604;-77
2022/12/09 02:56:52;;;;;;;28.40;17.83;;;0.50;99.90;;;;;;5093740;28;20303;-78
2022/12/09 02:59:18;;;;;;;25.87;17.17;;;0.40;99.90;;;;;;5094685;28;20196;-78
2022/12/09 03:01:50;;;;;;;26.97;17.37;;;0.40;99.90;;;;;;5093928;28;20201;-78
2022/12/09 03:04:22;;;;;;;23.83;16.10;;;0.40;99.90;;;;;;5108700;28;20638;-78
2022/12/09 03:06:52;;;;;;;30.70;19.33;;;0.40;99.90;;;;;;5110706;28;20201;-78
2022/12/09 03:09:24;;;;;;;29.83;18.67;;;0.30;99.90;;;;;;5094377;28;20220;-77
2022/12/09 03:11:52;;;;;;;28.60;18.03;;;0.30;99.90;;;;;;5093640;28;20228;-78
2022/12/09 03:14:25;;;;;;;27.43;17.27;;;0.40;99.90;;;;;;5093551;28;20250;-78
2022/12/09 03:16:57;;;;;;;27.70;18.00;;;0.30;99.90;;;;;;5094439;28;20309;-79
2022/12/09 03:19:30;;;;;;;32.13;18.07;;;0.40;99.90;;;;;;5093496;28;20189;-78
2022/12/09 03:21:59;;;;;;;33.77;19.77;;;0.40;99.90;;;;;;5093867;28;20585;-77
2022/12/09 03:24:32;;;;;;;31.03;19.13;;;0.40;99.90;;;;;;5093570;28;20205;-75
2022/12/09 03:27:05;;;;;;;31.27;19.07;;;0.30;99.90;;;;;;5093998;28;20201;-76
2022/12/09 03:29:35;;;;;;;29.80;19.50;;;0.40;99.90;;;;;;5093605;28;20239;-76
2022/12/09 03:32:02;;;;;;;28.53;18.13;;;0.40;99.90;;;;;;5093288;28;20824;-76
2022/12/09 03:34:34;;;;;;;29.93;18.50;;;0.40;99.90;;;;;;5093572;28;20250;-77
2022/12/09 03:37:02;;;;;;;30.93;18.40;;;0.40;99.90;;;;;;5093010;28;20257;-76
2022/12/09 03:39:32;;;;;;;31.47;19.27;;;0.40;99.90;;;;;;5093140;28;20196;-76
2022/12/09 03:42:03;;;;;;;31.37;19.43;;;0.50;99.90;;;;;;5093869;28;20275;-76
2022/12/09 03:44:37;;;;;;;28.73;18.43;;;0.50;99.90;;;;;;5092778;28;20560;-76
2022/12/09 03:47:05;;;;;;;27.63;18.43;;;0.50;99.90;;;;;;5092822;28;20235;-76
2022/12/09 03:49:34;;;;;;;32.57;20.03;;;0.50;99.90;;;;;;5093322;28;20224;-76
2022/12/09 03:52:06;;;;;;;35.73;22.37;;;0.50;99.90;;;;;;5093732;28;20275;-76
2022/12/09 03:54:40;;;;;;;34.80;21.43;;;0.60;99.90;;;;;;5104159;28;20227;-76
2022/12/09 03:57:11;;;;;;;32.77;20.20;;;0.60;99.90;;;;;;5113806;28;20188;-76
2022/12/09 03:59:39;;;;;;;34.17;21.60;;;0.60;99.90;;;;;;5113255;28;20570;-76
2022/12/09 04:02:06;;;;;;;30.57;19.60;;;0.70;99.90;;;;;;5113859;28;20223;-76
2022/12/09 04:04:38;;;;;;;35.93;22.33;;;0.70;99.90;;;;;;5099469;28;20200;-76
2022/12/09 04:07:05;;;;;;;36.67;21.80;;;0.70;99.90;;;;;;5092841;28;20195;-76
2022/12/09 04:09:32;;;;;;;35.53;20.63;;;0.70;99.90;;;;;;5093216;28;20250;-76
2022/12/09 04:11:59;;;;;;;30.87;20.03;;;0.70;99.90;;;;;;5093016;28;20636;-76
2022/12/09 04:14:26;;;;;;;38.87;22.10;;;0.70;99.90;;;;;;5091930;28;20236;-76
2022/12/09 04:16:52;;;;;;;37.83;22.97;;;0.70;99.90;;;;;;5092775;28;20715;-76
2022/12/09 04:19:19;;;;;;;37.07;22.00;;;0.70;99.90;;;;;;5092682;28;20212;-77
2022/12/09 04:21:48;;;;;;;38.57;23.27;;;0.70;99.90;;;;;;5092609;28;20284;-76
2022/12/09 04:24:15;;;;;;;39.00;21.97;;;0.70;99.90;;;;;;5092757;28;20523;-76
2022/12/09 04:26:42;;;;;;;43.23;25.03;;;0.70;99.90;;;;;;5092792;28;20292;-76
2022/12/09 04:29:09;;;;;;;42.23;24.53;;;0.70;99.90;;;;;;5091876;28;20915;-76
2022/12/09 04:31:36;;;;;;;42.93;24.17;;;0.70;99.90;;;;;;5092529;28;20197;-75
2022/12/09 04:34:04;;;;;;;43.27;25.83;;;0.70;99.90;;;;;;5092558;28;20511;-77
2022/12/09 04:36:31;;;;;;;43.03;25.07;;;0.70;99.90;;;;;;5092366;28;20211;-76
2022/12/09 04:38:59;;;;;;;47.03;27.57;;;0.70;99.90;;;;;;5092582;28;20193;-75
2022/12/09 04:41:26;;;;;;;47.93;26.87;;;0.80;99.90;;;;;;5092953;28;20232;-77
2022/12/09 04:43:53;;;;;;;75.03;28.63;;;0.80;99.90;;;;;;5104406;28;20624;-77
2022/12/09 04:46:20;;;;;;;74.30;28.03;;;0.80;99.90;;;;;;5112915;28;20561;-76
2022/12/09 04:48:48;;;;;;;160.47;29.83;;;0.80;99.90;;;;;;5110849;28;20222;-77
2022/12/09 04:51:16;;;;;;;162.60;29.40;;;0.80;99.90;;;;;;5092195;28;20287;-76
2022/12/09 04:53:43;;;;;;;153.93;26.77;;;0.80;99.90;;;;;;5091991;28;20306;-77
2022/12/09 04:56:14;;;;;;;150.87;25.03;;;0.80;99.90;;;;;;5091323;28;20211;-76
2022/12/09 04:58:42;;;;;;;157.67;24.27;;;0.80;99.90;;;;;;5092429;28;20193;-77
2022/12/09 05:01:10;;;;;;;81.13;21.97;;;0.70;99.90;;;;;;5092403;28;20314;-77
2022/12/09 05:03:37;;;;;;;112.37;22.67;;;0.70;99.90;;;;;;5091545;28;20238;-77
2022/12/09 05:06:05;;;;;;;187.50;25.50;;;0.70;99.90;;;;;;5092233;28;20232;-77
2022/12/09 05:08:32;;;;;;;85.67;20.73;;;0.70;99.90;;;;;;5092292;28;20224;-79
2022/12/09 05:10:59;;;;;;;90.70;21.60;;;0.80;99.90;;;;;;5091004;28;20515;-78
2022/12/09 05:13:29;;;;;;;70.67;21.47;;;0.80;99.90;;;;;;5093730;28;20236;-78
2022/12/09 05:16:01;;;;;;;105.77;21.27;;;0.80;99.90;;;;;;5093498;28;20252;-78
2022/12/09 05:18:29;;;;;;;36.23;16.83;;;0.80;99.90;;;;;;5092505;28;20197;-77
2022/12/09 05:20:56;;;;;;;86.03;17.33;;;0.80;99.90;;;;;;5093905;28;20420;-78
2022/12/09 05:23:25;;;;;;;29.60;14.03;;;0.80;99.90;;;;;;5092543;28;20618;-79
2022/12/09 05:25:54;;;;;;;48.33;14.83;;;0.80;99.90;;;;;;5101108;28;20233;-79
2022/12/09 05:28:21;;;;;;;116.37;18.67;;;0.80;99.90;;;;;;5112203;28;20291;-78
2022/12/09 05:30:49;;;;;;;76.87;17.13;;;0.90;99.90;;;;;;5113712;28;20585;-77
2022/12/09 05:33:16;;;;;;;32.37;14.23;;;0.90;99.90;;;;;;5102984;28;20299;-77
2022/12/09 05:35:44;;;;;;;28.53;13.37;;;0.90;99.90;;;;;;5095672;28;20493;-78
2022/12/09 05:38:11;;;;;;;68.53;17.10;;;0.90;99.90;;;;;;5096898;28;20204;-77
2022/12/09 05:40:38;;;;;;;29.47;14.67;;;0.90;99.90;;;;;;5099373;28;20209;-77
2022/12/09 05:43:04;;;;;;;113.27;19.00;;;0.90;99.90;;;;;;5097250;28;20192;-77
2022/12/09 05:45:32;;;;;;;51.40;16.43;;;0.90;99.90;;;;;;5095898;28;20205;-77
2022/12/09 05:48:01;;;;;;;59.70;16.63;;;0.80;99.90;;;;;;5080736;28;20506;-80
2022/12/09 05:50:28;;;;;;;63.73;17.53;;;0.90;99.90;;;;;;5097681;28;20588;-78
2022/12/09 05:52:55;;;;;;;43.47;15.50;;;0.90;99.90;;;;;;5097249;28;20696;-78
2022/12/09 05:55:22;;;;;;;184.10;22.70;;;0.90;99.90;;;;;;5096915;28;20203;-78
2022/12/09 05:57:49;;;;;;;41.23;16.73;;;0.90;99.90;;;;;;5096013;28;20291;-78
2022/12/09 06:00:18;;;;;;;113.27;18.37;;;0.90;99.90;;;;;;5095503;28;20203;-79
2022/12/09 06:02:45;;;;;;;158.53;22.17;;;0.90;99.90;;;;;;5112149;28;20215;-78
2022/12/09 06:05:13;;;;;;;85.27;18.07;;;0.90;99.90;;;;;;5109773;28;20206;-78
2022/12/09 06:07:40;;;;;;;118.97;18.50;;;0.80;99.90;;;;;;5094414;28;20600;-77
2022/12/09 06:10:07;;;;;;;106.13;18.00;;;0.80;99.90;;;;;;5095118;28;20246;-78
2022/12/09 06:12:34;;;;;;;42.93;16.27;;;0.80;99.90;;;;;;5095266;28;20200;-76
2022/12/09 06:15:01;;;;;;;43.00;14.67;;;0.80;99.90;;;;;;5094421;28;20673;-76
2022/12/09 06:17:28;;;;;;;61.17;16.07;;;0.80;99.90;;;;;;5095167;28;20235;-75
2022/12/09 06:19:55;;;;;;;165.70;23.73;;;0.80;99.90;;;;;;5095544;28;20253;-76
2022/12/09 06:22:23;;;;;;;112.07;19.87;;;0.80;99.90;;;;;;5094996;28;20313;-76
2022/12/09 06:24:50;;;;;;;145.83;23.07;;;0.80;99.90;;;;;;5094686;28;20292;-76
2022/12/09 06:27:17;;;;;;;40.40;14.33;;;0.80;99.90;;;;;;5095124;28;20200;-79
2022/12/09 06:29:44;;;;;;;54.27;17.30;;;0.80;99.90;;;;;;5094028;28;20737;-78
2022/12/09 06:32:10;;;;;;;83.13;18.07;;;0.80;99.90;;;;;;5094643;28;20571;-78
2022/12/09 06:34:37;;;;;;;103.50;18.50;;;0.80;99.90;;;;;;5093316;28;20210;-77
2022/12/09 06:37:04;;;;;;;96.57;19.00;;;0.80;99.90;;;;;;5095038;28;20304;-78
2022/12/09 06:39:32;;;;;;;45.27;16.43;;;0.80;99.90;;;;;;5094596;28;20651;-78
2022/12/09 06:41:59;;;;;;;98.07;18.80;;;0.80;99.90;;;;;;5093895;28;20283;-78
2022/12/09 06:44:26;;;;;;;50.87;16.20;;;0.80;99.90;;;;;;5108454;28;20206;-78
2022/12/09 06:46:53;;;;;;;98.00;18.57;;;0.70;99.90;;;;;;5114361;28;20206;-78
2022/12/09 06:49:20;;;;;;;105.43;20.10;;;0.70;99.90;;;;;;5085634;28;20217;-78
2022/12/09 06:51:47;;;;;;;54.03;15.23;;;0.70;99.90;;;;;;5094689;28;20292;-78
2022/12/09 06:54:14;;;;;;;153.73;21.97;;;0.70;99.90;;;;;;5094178;28;20201;-77
2022/12/09 06:56:42;;;;;;;34.57;15.77;;;0.70;99.90;;;;;;5093741;28;20520;-78
2022/12/09 06:59:10;;;;;;;39.50;16.57;;;0.70;99.90;;;;;;5094210;28;20193;-77
2022/12/09 07:01:38;;;;;;;58.57;18.77;;;0.70;99.90;;;;;;5093729;28;20204;-78
2022/12/09 07:04:05;;;;;;;56.57;18.67;;;0.70;99.90;;;;;;5093528;28;20303;-78
2022/12/09 07:06:34;;;;;;;55.03;18.40;;;0.70;99.90;;;;;;5109181;28;20206;-78
2022/12/09 07:09:04;;;;;;;42.83;16.77;;;0.70;99.90;;;;;;5114697;28;20575;-78
2022/12/09 07:11:30;;;;;;;46.80;17.13;;;0.70;99.90;;;;;;5112862;28;20204;-78
2022/12/09 07:13:59;;;;;;;61.47;18.43;;;0.70;99.90;;;;;;5114165;28;20228;-78
2022/12/09 07:16:26;;;;;;;72.70;18.00;;;0.70;99.90;;;;;;5096691;28;20224;-78
2022/12/09 07:18:53;;;;;;;38.93;18.03;;;0.70;99.90;;;;;;5095565;28;20206;-78
2022/12/09 07:21:22;;;;;;;42.67;17.33;;;0.60;99.90;;;;;;5093495;28;20612;-77
2022/12/09 07:23:49;;;;;;;53.30;18.07;;;0.70;99.90;;;;;;5092971;28;20197;-78
2022/12/09 07:26:16;;;;;;;58.97;19.13;;;0.70;99.90;;;;;;5118348;27;20283;-78
2022/12/09 07:28:45;;;;;;;48.83;18.63;;;0.60;99.90;;;;;;5116807;27;20644;-78
2022/12/09 07:31:20;;;;;;;64.50;20.03;;;0.60;99.90;;;;;;5112777;28;20668;-78
2022/12/09 07:33:48;;;;;;;69.63;20.13;;;0.60;99.90;;;;;;5113629;28;20633;-77
2022/12/09 07:36:14;;;;;;;43.50;18.33;;;0.70;99.90;;;;;;5109521;28;20197;-78
2022/12/09 07:38:41;;;;;;;56.20;18.70;;;0.70;99.90;;;;;;5107248;27;20306;-78
2022/12/09 07:41:16;;;;;;;54.30;20.07;;;0.70;99.90;;;;;;5114444;28;20290;-78
2022/12/09 07:43:45;;;;;;;46.37;18.57;;;0.70;99.90;;;;;;5113621;28;20511;-77
2022/12/09 07:46:12;;;;;;;45.03;18.90;;;0.70;99.90;;;;;;5112875;28;20196;-78
2022/12/09 07:48:41;;;;;;;73.37;20.73;;;0.70;99.90;;;;;;5094947;28;20203;-80
2022/12/09 07:51:08;;;;;;;65.43;21.83;;;0.80;99.90;;;;;;5092315;28;20600;-78
2022/12/09 07:53:35;;;;;;;65.53;20.57;;;0.80;99.90;;;;;;5092083;28;20596;-78
2022/12/09 07:56:03;;;;;;;51.57;21.23;;;0.80;99.90;;;;;;5098843;28;20261;-78
2022/12/09 07:58:30;;;;;;;61.83;20.57;;;0.80;99.90;;;;;;5112527;28;20241;-77
2022/12/09 08:00:57;;;;;;;63.37;23.20;;;0.80;99.90;;;;;;5112354;28;20287;-77
2022/12/09 08:03:24;;;;;;;53.27;21.90;;;0.80;99.90;;;;;;5111623;28;20644;-78
2022/12/09 08:05:53;;;;;;;51.73;21.80;;;0.90;99.90;;;;;;5115521;27;20256;-78
2022/12/09 08:08:20;;;;;;;50.47;20.73;;;0.90;99.90;;;;;;5112759;28;20219;-78
2022/12/09 08:10:47;;;;;;;50.87;22.43;;;0.90;99.90;;;;;;5111902;28;20212;-78
2022/12/09 08:13:13;;;;;;;45.33;19.27;;;1.00;99.90;;;;;;5109011;28;20239;-78
2022/12/09 08:15:40;;;;;;;60.73;23.43;;;1.00;99.90;;;;;;5112638;28;20310;-78
2022/12/09 08:18:07;;;;;;;58.73;22.87;;;1.10;99.90;;;;;;5112677;28;20692;-77
2022/12/09 08:20:34;;;;;;;59.10;25.47;;;1.10;99.90;;;;;;5108851;28;20295;-78
2022/12/09 08:23:02;;;;;;;59.43;23.37;;;1.20;99.90;;;;;;5112157;28;20843;-78
2022/12/09 08:25:29;;;;;;;51.83;20.90;;;1.20;99.90;;;;;;5096678;28;20232;-76
2022/12/09 08:27:56;;;;;;;63.43;25.07;;;1.20;99.90;;;;;;5091559;28;20232;-77
2022/12/09 08:30:23;;;;;;;59.30;24.10;;;1.30;99.90;;;;;;5098437;27;20226;-77
2022/12/09 08:32:50;;;;;;;55.17;23.33;;;1.30;99.90;;;;;;5133686;27;20234;-78
2022/12/09 08:35:17;;;;;;;56.13;24.13;;;1.30;99.90;;;;;;5094381;27;20197;-77
2022/12/09 08:37:44;;;;;;;50.33;22.07;;;1.40;99.90;;;;;;5092518;28;20237;-78
2022/12/09 08:40:13;;;;;;;48.00;22.40;;;1.40;99.90;;;;;;5092589;28;20235;-78
2022/12/09 08:42:40;;;;;;;47.33;22.17;;;1.40;99.90;;;;;;5091666;28;20205;-78
2022/12/09 08:45:08;;;;;;;51.70;23.07;;;1.40;99.90;;;;;;5092099;28;20287;-78
2022/12/09 08:47:35;;;;;;;52.20;23.93;;;1.50;99.90;;;;;;5090883;28;20685;-78
2022/12/09 08:50:02;;;;;;;48.70;22.17;;;1.50;99.90;;;;;;5093919;28;20298;-78
2022/12/09 08:52:28;;;;;;;46.30;21.17;;;1.50;99.90;;;;;;5112005;28;20302;-78
2022/12/09 08:54:55;;;;;;;55.30;23.30;;;1.50;99.90;;;;;;5112297;28;20286;-79
2022/12/09 08:57:24;;;;;;;48.37;22.53;;;1.60;99.90;;;;;;5112107;28;20279;-78
2022/12/09 08:59:51;;;;;;;53.10;24.13;;;1.60;99.90;;;;;;5102060;28;20201;-78
2022/12/09 09:02:18;;;;;;;52.63;23.67;;;1.60;99.90;;;;;;5091604;28;20556;-79
2022/12/09 09:04:45;;;;;;;56.60;23.03;;;1.70;99.90;;;;;;5092207;28;20201;-78
2022/12/09 09:07:13;;;;;;;61.43;23.93;;;1.70;99.90;;;;;;5092077;28;20196;-78
2022/12/09 09:09:40;;;;;;;56.03;23.70;;;1.70;99.90;;;;;;5091832;28;20310;-78
2022/12/09 09:12:07;;;;;;;48.23;21.00;;;1.70;99.90;;;;;;5092198;28;20299;-78
2022/12/09 09:14:35;;;;;;;52.60;22.70;;;1.70;99.90;;;;;;5092073;28;20326;-79
2022/12/09 09:17:02;;;;;;;58.10;24.83;;;1.80;99.90;;;;;;5091415;28;20213;-79
2022/12/09 09:19:30;;;;;;;60.17;25.07;;;1.80;99.90;;;;;;5091921;28;20323;-78
2022/12/09 09:21:57;;;;;;;49.43;21.93;;;1.80;99.90;;;;;;5091979;28;20284;-80
2022/12/09 09:24:39;;;;;;;53.03;24.13;;;1.90;99.90;;;;;;5091518;28;20665;-79
2022/12/09 09:27:06;;;;;;;46.93;21.67;;;1.90;99.90;;;;;;5091864;28;20234;-79
2022/12/09 09:29:35;;;;;;;58.27;23.43;;;1.90;99.90;;;;;;5092161;28;20347;-78
2022/12/09 09:32:02;;;;;;;54.47;25.07;;;1.90;99.90;;;;;;5091178;28;20287;-79
2022/12/09 09:34:29;;;;;;;53.73;22.83;;;2.00;99.90;;;;;;5091990;28;20243;-79
2022/12/09 09:36:56;;;;;;;48.67;22.20;;;2.00;99.90;;;;;;5092291;28;20232;-79
2022/12/09 09:39:23;;;;;;;55.63;23.43;;;2.00;99.90;;;;;;5091354;28;20201;-79
2022/12/09 09:41:52;;;;;;;57.00;24.20;;;2.10;99.90;;;;;;5092193;28;20196;-79
2022/12/09 09:44:24;;;;;;;49.73;24.27;;;2.10;99.90;;;;;;5091396;28;20211;-80
2022/12/09 09:46:54;;;;;;;57.83;27.20;;;2.10;99.90;;;;;;5091994;28;20283;-80
2022/12/09 09:49:30;;;;;;;50.53;23.30;;;2.10;99.90;;;;;;5092022;28;20288;-80
2022/12/09 09:51:58;;;;;;;53.80;23.57;;;2.20;99.90;;;;;;5091415;28;20279;-80
2022/12/09 09:54:24;;;;;;;54.20;23.87;;;2.20;99.90;;;;;;5091331;28;20307;-80
2022/12/09 09:56:57;;;;;;;52.57;25.00;;;2.30;99.90;;;;;;5091607;28;20199;-80
2022/12/09 09:59:37;;;;;;;56.83;24.43;;;2.30;99.90;;;;;;5091422;28;20210;-79
2022/12/09 10:02:17;;;;;;;60.67;25.20;;;2.40;99.90;;;;;;5092260;28;20200;-80
2022/12/09 10:04:53;;;;;;;58.30;25.90;;;2.40;99.90;;;;;;5091529;28;20613;-80
2022/12/09 10:07:25;;;;;;;51.63;24.07;;;2.40;99.90;;;;;;5091407;28;20287;-80
2022/12/09 10:10:02;;;;;;;53.93;25.20;;;2.30;99.90;;;;;;5091168;28;20712;-80
2022/12/09 10:12:40;;;;;;;50.77;24.37;;;2.30;99.90;;;;;;5091284;28;20561;-80
2022/12/09 10:15:12;;;;;;;58.33;26.27;;;2.30;99.90;;;;;;5091132;28;20719;-79
2022/12/09 10:17:47;;;;;;;58.70;25.00;;;2.40;99.90;;;;;;5091733;28;20592;-80
2022/12/09 10:20:17;;;;;;;45.83;23.10;;;2.30;99.90;;;;;;5077219;28;20193;-80
2022/12/09 10:22:49;;;;;;;49.33;23.10;;;2.30;99.90;;;;;;5095027;28;20196;-80
2022/12/09 10:25:20;;;;;;;51.27;24.67;;;2.40;99.90;;;;;;5095297;28;20275;-80
2022/12/09 10:27:53;;;;;;;53.40;24.20;;;2.40;99.90;;;;;;5094405;28;20546;-80
2022/12/09 10:30:21;;;;;;;54.47;24.50;;;2.40;99.90;;;;;;5094817;28;20217;-80
2022/12/09 10:32:49;;;;;;;57.23;25.87;;;2.40;99.90;;;;;;5107482;28;20200;-80
2022/12/09 10:35:18;;;;;;;50.77;23.40;;;2.40;99.90;;;;;;5111201;28;20287;-80
2022/12/09 10:37:46;;;;;;;54.50;23.87;;;2.40;99.90;;;;;;5105429;28;20282;-80
2022/12/09 10:40:28;;;;;;;47.17;22.37;;;2.30;99.90;;;;;;5108944;28;20264;-81
2022/12/09 10:45:47;;;;;;;51.87;23.97;;;2.40;99.90;;;;;;5098849;28;20673;-82
2022/12/09 10:48:29;;;;;;;50.40;24.83;;;2.40;99.90;;;;;;5098887;28;20274;-81
2022/12/09 10:50:58;;;;;;;52.10;23.67;;;2.50;99.90;;;;;;5113527;28;20330;-81
2022/12/09 10:53:25;;;;;;;51.33;22.93;;;2.50;99.90;;;;;;5107795;28;20294;-80
2022/12/09 10:55:55;;;;;;;52.13;24.17;;;2.50;99.90;;;;;;5092875;28;20220;-80
2022/12/09 10:58:25;;;;;;;47.47;24.23;;;2.50;99.90;;;;;;5099685;28;20321;-80
2022/12/09 11:01:02;;;;;;;58.27;26.60;;;2.40;99.90;;;;;;5106892;28;20204;-80
2022/12/09 11:03:34;;;;;;;46.73;23.83;;;2.40;99.90;;;;;;5098154;28;20188;-80
2022/12/09 11:06:21;;;;;;;54.03;24.60;;;2.50;99.90;;;;;;5112850;28;20206;-81
2022/12/09 11:08:55;;;;;;;45.70;22.60;;;2.50;99.90;;;;;;5103795;28;20275;-81
2022/12/09 11:11:42;;;;;;;55.27;24.37;;;2.50;99.90;;;;;;5108264;28;20291;-81
2022/12/09 11:14:34;;;;;;;49.63;22.67;;;2.60;99.90;;;;;;5118961;27;20229;-80
2022/12/09 11:17:14;;;;;;;50.03;23.87;;;2.70;99.90;;;;;;5121030;27;20199;-80
2022/12/09 11:19:43;;;;;;;47.53;22.80;;;2.80;99.90;;;;;;5093938;28;20255;-79
2022/12/09 11:22:34;;;;;;;55.70;25.93;;;2.80;99.90;;;;;;5094296;28;20513;-80
2022/12/09 11:25:23;;;;;;;62.53;27.63;;;2.90;99.90;;;;;;5106624;28;20200;-80
2022/12/09 11:27:53;;;;;;;61.50;27.40;;;2.90;99.90;;;;;;5114261;28;20276;-80
2022/12/09 11:30:22;;;;;;;61.37;26.13;;;2.90;99.90;;;;;;5111697;28;20326;-80
2022/12/09 11:32:56;;;;;;;58.40;24.83;;;2.90;99.90;;;;;;5114048;28;20200;-79
2022/12/09 11:35:32;;;;;;;56.80;24.53;;;2.90;99.90;;;;;;5104881;28;20290;-80
2022/12/09 11:38:03;;;;;;;52.97;25.40;;;2.90;99.90;;;;;;5092911;28;20185;-80
2022/12/09 11:40:32;;;;;;;55.27;24.30;;;2.80;99.90;;;;;;5093814;28;20546;-80
2022/12/09 11:42:59;;;;;;;53.00;25.17;;;2.80;99.90;;;;;;5097613;27;20768;-80
2022/12/09 11:45:29;;;;;;;54.57;25.33;;;2.80;99.90;;;;;;5113196;28;20695;-81
2022/12/09 11:48:05;;;;;;;55.23;24.87;;;2.80;99.90;;;;;;5118891;27;20307;-80
2022/12/09 11:50:40;;;;;;;49.07;23.67;;;2.80;99.90;;;;;;5109670;28;20216;-80
2022/12/09 11:53:26;;;;;;;55.50;24.90;;;2.80;99.90;;;;;;5112351;28;20188;-80
2022/12/09 11:55:57;;;;;;;53.13;25.10;;;2.80;99.90;;;;;;5101165;28;20569;-81
2022/12/09 11:58:28;;;;;;;52.97;25.10;;;2.80;99.90;;;;;;5113239;28;20279;-80
2022/12/09 12:01:01;;;;;;;55.53;25.33;;;2.80;99.90;;;;;;5107122;28;20260;-80
2022/12/09 12:03:35;;;;;;;52.23;23.77;;;2.80;99.90;;;;;;5093252;28;20343;-80
2022/12/09 12:06:07;;;;;;;53.93;24.07;;;2.80;99.90;;;;;;5092514;28;20592;-80
2022/12/09 12:08:42;;;;;;;51.73;24.70;;;2.80;99.90;;;;;;5093767;28;20277;-81
2022/12/09 12:11:12;;;;;;;55.83;25.10;;;2.90;99.90;;;;;;5092764;28;20223;-79
2022/12/09 12:13:44;;;;;;;54.57;25.70;;;2.90;99.90;;;;;;5092325;28;20243;-80
2022/12/09 12:16:13;;;;;;;54.83;25.30;;;3.00;99.90;;;;;;5110418;28;20268;-79
2022/12/09 12:18:46;;;;;;;53.93;23.83;;;3.00;99.90;;;;;;5113408;28;20311;-83
2022/12/09 12:21:33;;;;;;;55.93;25.40;;;3.10;99.90;;;;;;5109718;28;20275;-83
2022/12/09 12:24:28;;;;;;;57.57;26.20;;;3.10;99.90;;;;;;5092896;28;20785;-80
2022/12/09 12:27:03;;;;;;;49.47;23.77;;;3.10;99.90;;;;;;5094563;28;20283;-79
2022/12/09 12:29:42;;;;;;;50.93;24.60;;;3.10;99.90;;;;;;5112795;28;20198;-80
2022/12/09 12:32:31;;;;;;;55.67;25.57;;;3.10;99.90;;;;;;5112710;28;20302;-79
2022/12/09 12:35:10;;;;;;;44.70;22.90;;;3.10;99.90;;;;;;5093665;28;20280;-80
2022/12/09 12:37:54;;;;;;;53.40;24.80;;;3.20;99.90;;;;;;5093443;28;20220;-81
2022/12/09 12:40:32;;;;;;;47.97;24.23;;;3.20;99.90;;;;;;5092129;28;20271;-80
2022/12/09 12:48:56;;;;;;;56.00;27.47;;;3.20;99.90;;;;;;5091832;28;20641;-82
2022/12/09 12:51:32;;;;;;;51.67;26.07;;;3.30;99.90;;;;;;5092252;28;20532;-79
2022/12/09 12:54:11;;;;;;;52.77;24.63;;;3.30;99.90;;;;;;5092523;28;20300;-79
2022/12/09 12:56:46;;;;;;;54.00;24.13;;;3.30;99.90;;;;;;5092456;28;20223;-79